Ocean Wind — WDG5141 — position and weather

sailwx.info

Track history (hours):
 
Tides and Currents Weather Stations Pressure Air Temp Water Temp Dewpoint Dewpoint Depression Visibility Wind Speed Wind Dir Waves Ship Positions

Ocean Wind

Owner: CROWLEY MARINE SERVIES, INC, SEATTLE, WA. More information available from US FCC via Universal Licensing System and Coast Guard Vessel Documentation Center.

Last reported at 2017-Oct-26 19:31 UTC. Time now 2017-Nov-18 17:40 UTC.
Position N 26°59' W 079°55'.
Warning: this ship's position is 22 days out of date.

Length 45 m; draft 18 m.

Type: Tug. MMSI: 338737000.

Date/timePositionNaut miles runAvg speedWind from/ knotsBaromVisibWave heightAir tempDewpointWater temp
2017-Oct-26 19:31N 26°59' W 079°55'010.5
2017-Oct-26 19:31N 26°59' W 079°55'43 9.7
2017-Oct-26 15:04N 26°16' W 080°01'1 9.3
2017-Oct-26 14:59N 26°15' W 080°01'4 9.3
2017-Oct-26 14:30N 26°11' W 080°01'5 9.1
2017-Oct-26 14:00N 26°06' W 080°01'5 9.0
2017-Oct-26 13:30N 26°02' W 080°02'4 8.4
2017-Oct-26 13:00N 25°58' W 080°02'4 8.5
2017-Oct-26 12:30N 25°54' W 080°02'4 8.5
2017-Oct-26 12:00N 25°49' W 080°01'4 8.4
2017-Oct-26 11:31N 25°45' W 080°01'4 8.5
2017-Oct-26 11:01N 25°41' W 080°00'5 9.0
2017-Oct-26 10:31N 25°36' W 079°60'5 9.4
2017-Oct-26 10:00N 25°32' W 079°60'  
2017-Oct-20 14:00N 30°01' W 093°20'4 8.1
2017-Oct-20 13:30N 30°05' W 093°20'4 7.6
2017-Oct-20 13:00N 30°09' W 093°20'3 6.6
2017-Oct-20 12:30N 30°12' W 093°17'2 0.3
2017-Oct-20 05:07N 30°13' W 093°16'0 0.0
2017-Oct-20 03:31N 30°13' W 093°16'0 0.0
2017-Oct-20 02:43N 30°13' W 093°16'0 0.0
2017-Oct-20 02:25N 30°13' W 093°16'0 0.0
2017-Oct-20 01:49N 30°13' W 093°16'0 0.0
2017-Oct-20 01:25N 30°13' W 093°16'0 0.0
2017-Oct-19 21:31N 30°13' W 093°16'0 0.0
2017-Oct-19 21:13N 30°13' W 093°16'0 0.0
2017-Oct-19 20:49N 30°13' W 093°16'0 0.0
2017-Oct-19 20:13N 30°13' W 093°16'0 0.0
2017-Oct-19 19:55N 30°13' W 093°16'0 0.0
2017-Oct-19 19:19N 30°13' W 093°16'0 0.0
2017-Oct-19 17:07N 30°13' W 093°16'0 0.0
2017-Oct-19 16:49N 30°13' W 093°16'0 0.0
2017-Oct-19 16:22N 30°13' W 093°16'0 0.0
2017-Oct-19 15:55N 30°13' W 093°16'0 0.0
2017-Oct-19 15:25N 30°13' W 093°16'0 0.0
2017-Oct-19 14:49N 30°13' W 093°16'0 0.0
2017-Oct-19 14:25N 30°13' W 093°16'0 0.0
2017-Oct-19 13:37N 30°13' W 093°16'0 0.0
2017-Oct-19 13:25N 30°13' W 093°16'0 0.0
2017-Oct-19 12:55N 30°13' W 093°16'0 0.0
2017-Oct-19 12:28N 30°13' W 093°16'0 0.0
2017-Oct-19 11:58N 30°13' W 093°16'0 0.0
2017-Oct-19 11:13N 30°13' W 093°16'0 0.0
2017-Oct-19 10:49N 30°13' W 093°16'0 0.0
2017-Oct-19 10:25N 30°13' W 093°16'0 0.0
2017-Oct-19 09:55N 30°13' W 093°16'0 0.0
2017-Oct-19 09:25N 30°13' W 093°16'0 0.0
2017-Oct-19 06:55N 30°13' W 093°16'0 0.0
2017-Oct-19 05:55N 30°13' W 093°16'0 0.0
2017-Oct-19 05:25N 30°13' W 093°16'0 0.0
2017-Oct-19 04:55N 30°13' W 093°16'0 0.0
2017-Oct-19 04:25N 30°13' W 093°16'0 0.0
2017-Oct-19 03:55N 30°13' W 093°16'0 0.0
2017-Oct-19 03:28N 30°13' W 093°16'0 0.0
2017-Oct-19 02:55N 30°13' W 093°16'0 0.0
2017-Oct-19 02:25N 30°13' W 093°16'0 0.0
2017-Oct-19 01:55N 30°13' W 093°16'0 0.0
2017-Oct-19 01:19N 30°13' W 093°16'0 0.0
2017-Oct-19 00:49N 30°13' W 093°16'0 0.0
2017-Oct-19 00:28N 30°13' W 093°16'0 0.0
2017-Oct-18 23:49N 30°13' W 093°16'0 0.0
2017-Oct-18 23:25N 30°13' W 093°16'0 0.0
2017-Oct-18 22:55N 30°13' W 093°16'0 0.0
2017-Oct-18 22:25N 30°13' W 093°16'0 0.0
2017-Oct-18 21:58N 30°13' W 093°16'0 0.0
2017-Oct-18 21:28N 30°13' W 093°16'0 0.0
2017-Oct-18 20:43N 30°13' W 093°16'0 0.0
2017-Oct-18 20:25N 30°13' W 093°16'0 0.0
2017-Oct-18 19:55N 30°13' W 093°16'0 0.0
2017-Oct-18 19:25N 30°13' W 093°16'0 0.0
2017-Oct-18 18:58N 30°13' W 093°16'0 0.0
2017-Oct-18 18:25N 30°13' W 093°16'0 0.0
2017-Oct-18 17:49N 30°13' W 093°16'0 0.0
2017-Oct-18 17:25N 30°13' W 093°16'0 0.0
2017-Oct-18 16:55N 30°13' W 093°16'0 0.0
2017-Oct-18 16:25N 30°13' W 093°16'0 0.0
2017-Oct-18 15:49N 30°13' W 093°16'0 0.0
2017-Oct-18 15:19N 30°13' W 093°16'0 0.0
2017-Oct-18 14:55N 30°13' W 093°16'0 0.0
2017-Oct-18 13:49N 30°13' W 093°16'0 0.0
2017-Oct-18 13:19N 30°13' W 093°16'0 0.0
2017-Oct-18 12:49N 30°13' W 093°16'0 0.0
2017-Oct-18 12:25N 30°13' W 093°16'0 0.0
2017-Oct-18 11:55N 30°13' W 093°16'0 0.0
2017-Oct-18 11:25N 30°13' W 093°16'0 0.0
2017-Oct-18 10:55N 30°13' W 093°16'0 0.0
2017-Oct-18 10:19N 30°13' W 093°16'0 0.0
2017-Oct-18 09:43N 30°13' W 093°16'0 0.0
2017-Oct-18 09:25N 30°13' W 093°16'0 0.0
2017-Oct-18 08:49N 30°13' W 093°16'0 0.0
2017-Oct-18 08:25N 30°13' W 093°16'0 0.0
2017-Oct-18 07:55N 30°13' W 093°16'0 0.0
2017-Oct-18 07:19N 30°13' W 093°16'0 0.0
2017-Oct-18 06:49N 30°13' W 093°16'0 0.0
2017-Oct-18 06:25N 30°13' W 093°16'0 0.0
2017-Oct-18 05:43N 30°13' W 093°16'0 0.0
2017-Oct-18 05:25N 30°13' W 093°16'0 0.0
2017-Oct-18 04:55N 30°13' W 093°16'0 0.0
2017-Oct-18 04:25N 30°13' W 093°16'0 0.0
2017-Oct-18 03:55N 30°13' W 093°16'0 0.0
2017-Oct-18 03:25N 30°13' W 093°16'0 0.0
2017-Oct-18 02:55N 30°13' W 093°16'0 0.0
2017-Oct-18 02:25N 30°13' W 093°16'0 0.0
2017-Oct-18 01:55N 30°13' W 093°16'0 0.0
2017-Oct-18 01:25N 30°13' W 093°16'0 0.0
2017-Oct-18 00:55N 30°13' W 093°16'0 0.0
2017-Oct-18 00:25N 30°13' W 093°16'0 0.0
2017-Oct-17 23:49N 30°13' W 093°16'0 0.0
2017-Oct-17 23:25N 30°13' W 093°16'0 0.0
2017-Oct-17 22:55N 30°13' W 093°16'0 0.0
2017-Oct-17 22:25N 30°13' W 093°16'0 0.0
2017-Oct-17 21:55N 30°13' W 093°16'0 0.0
2017-Oct-17 21:25N 30°13' W 093°16'0 0.0
2017-Oct-17 20:55N 30°13' W 093°16'0 0.0
2017-Oct-17 20:25N 30°13' W 093°16'0 0.0
2017-Oct-17 19:55N 30°13' W 093°16'0 0.0
2017-Oct-17 19:25N 30°13' W 093°16'0 0.0
2017-Oct-17 18:55N 30°13' W 093°16'0 0.0
2017-Oct-17 18:25N 30°13' W 093°16'0 0.0
2017-Oct-17 17:55N 30°13' W 093°16'0 0.0
2017-Oct-17 17:25N 30°13' W 093°16'0 0.0
2017-Oct-17 16:55N 30°13' W 093°16'0 0.0
2017-Oct-17 16:25N 30°13' W 093°16'0 0.0
2017-Oct-17 15:19N 30°13' W 093°16'0 0.0
2017-Oct-17 14:55N 30°13' W 093°16'0 0.0
2017-Oct-17 14:25N 30°13' W 093°16'0 0.0
2017-Oct-17 13:55N 30°13' W 093°16'0 0.0
2017-Oct-17 13:19N 30°13' W 093°16'0 0.0
2017-Oct-17 12:55N 30°13' W 093°16'0 0.0
2017-Oct-17 12:25N 30°13' W 093°16'0 0.0
2017-Oct-17 11:55N 30°13' W 093°16'0 0.0
2017-Oct-17 10:07N 30°13' W 093°16'0 0.0
2017-Oct-17 09:55N 30°13' W 093°16'0 0.0
2017-Oct-17 08:37N 30°13' W 093°16'0 0.0
2017-Oct-17 08:25N 30°13' W 093°16'0 0.0
2017-Oct-17 07:55N 30°13' W 093°16'0 0.0
2017-Oct-17 07:25N 30°13' W 093°16'0 0.0
2017-Oct-17 06:55N 30°13' W 093°16'0 0.0
2017-Oct-17 06:25N 30°13' W 093°16'0 0.0
2017-Oct-17 05:55N 30°13' W 093°16'0 0.0
2017-Oct-17 05:07N 30°13' W 093°16'0 0.0
2017-Oct-17 04:55N 30°13' W 093°16'0 0.0
2017-Oct-17 04:25N 30°13' W 093°16'0 0.0
2017-Oct-17 03:55N 30°13' W 093°16'0 0.0
2017-Oct-17 03:13N 30°13' W 093°16'0 0.0
2017-Oct-17 02:43N 30°13' W 093°16'0 0.0
2017-Oct-17 02:01N 30°13' W 093°16'0 0.0
2017-Oct-17 01:37N 30°13' W 093°16'0 0.0
2017-Oct-17 01:25N 30°13' W 093°16'0 0.0
2017-Oct-17 00:55N 30°13' W 093°16'0 0.0
2017-Oct-17 00:13N 30°13' W 093°16'0 0.0
2017-Oct-16 23:55N 30°13' W 093°16'0 0.0
2017-Oct-16 23:25N 30°13' W 093°16'0 0.0
2017-Oct-16 21:55N 30°13' W 093°16'0 0.0
2017-Oct-16 21:19N 30°13' W 093°16'0 0.0
2017-Oct-16 20:55N 30°13' W 093°16'0 0.0
2017-Oct-16 20:13N 30°13' W 093°16'0 0.0
2017-Oct-16 19:49N 30°13' W 093°16'  
Track history (hours):
 
Tides and Currents Weather Stations Pressure Air Temp Water Temp Dewpoint Dewpoint Depression Visibility Wind Speed Wind Dir Waves Ship Positions

Ocean Wind

Owner: CROWLEY MARINE SERVIES, INC, SEATTLE, WA. More information available from US FCC via Universal Licensing System and Coast Guard Vessel Documentation Center.

Last reported at 2017-Oct-26 19:31 UTC. Time now 2017-Nov-18 17:40 UTC.
Position N 26°59' W 079°55'.
Warning: this ship's position is 22 days out of date.

Length 45 m; draft 18 m.

Type: Tug. MMSI: 338737000.

Date/timePositionNaut miles runAvg speedWind from/ knotsBaromVisibWave heightAir tempDewpointWater temp
2017-Oct-26 19:31N 26°59' W 079°55'010.5
2017-Oct-26 19:31N 26°59' W 079°55'43 9.7
2017-Oct-26 15:04N 26°16' W 080°01'1 9.3
2017-Oct-26 14:59N 26°15' W 080°01'4 9.3
2017-Oct-26 14:30N 26°11' W 080°01'5 9.1
2017-Oct-26 14:00N 26°06' W 080°01'5 9.0
2017-Oct-26 13:30N 26°02' W 080°02'4 8.4
2017-Oct-26 13:00N 25°58' W 080°02'4 8.5
2017-Oct-26 12:30N 25°54' W 080°02'4 8.5
2017-Oct-26 12:00N 25°49' W 080°01'4 8.4
2017-Oct-26 11:31N 25°45' W 080°01'4 8.5
2017-Oct-26 11:01N 25°41' W 080°00'5 9.0
2017-Oct-26 10:31N 25°36' W 079°60'5 9.4
2017-Oct-26 10:00N 25°32' W 079°60'  
2017-Oct-20 14:00N 30°01' W 093°20'4 8.1
2017-Oct-20 13:30N 30°05' W 093°20'4 7.6
2017-Oct-20 13:00N 30°09' W 093°20'3 6.6
2017-Oct-20 12:30N 30°12' W 093°17'2 0.3
2017-Oct-20 05:07N 30°13' W 093°16'0 0.0
2017-Oct-20 03:31N 30°13' W 093°16'0 0.0
2017-Oct-20 02:43N 30°13' W 093°16'0 0.0
2017-Oct-20 02:25N 30°13' W 093°16'0 0.0
2017-Oct-20 01:49N 30°13' W 093°16'0 0.0
2017-Oct-20 01:25N 30°13' W 093°16'0 0.0
2017-Oct-19 21:31N 30°13' W 093°16'0 0.0
2017-Oct-19 21:13N 30°13' W 093°16'0 0.0
2017-Oct-19 20:49N 30°13' W 093°16'0 0.0
2017-Oct-19 20:13N 30°13' W 093°16'0 0.0
2017-Oct-19 19:55N 30°13' W 093°16'0 0.0
2017-Oct-19 19:19N 30°13' W 093°16'0 0.0
2017-Oct-19 17:07N 30°13' W 093°16'0 0.0
2017-Oct-19 16:49N 30°13' W 093°16'0 0.0
2017-Oct-19 16:22N 30°13' W 093°16'0 0.0
2017-Oct-19 15:55N 30°13' W 093°16'0 0.0
2017-Oct-19 15:25N 30°13' W 093°16'0 0.0
2017-Oct-19 14:49N 30°13' W 093°16'0 0.0
2017-Oct-19 14:25N 30°13' W 093°16'0 0.0
2017-Oct-19 13:37N 30°13' W 093°16'0 0.0
2017-Oct-19 13:25N 30°13' W 093°16'0 0.0
2017-Oct-19 12:55N 30°13' W 093°16'0 0.0
2017-Oct-19 12:28N 30°13' W 093°16'0 0.0
2017-Oct-19 11:58N 30°13' W 093°16'0 0.0
2017-Oct-19 11:13N 30°13' W 093°16'0 0.0
2017-Oct-19 10:49N 30°13' W 093°16'0 0.0
2017-Oct-19 10:25N 30°13' W 093°16'0 0.0
2017-Oct-19 09:55N 30°13' W 093°16'0 0.0
2017-Oct-19 09:25N 30°13' W 093°16'0 0.0
2017-Oct-19 06:55N 30°13' W 093°16'0 0.0
2017-Oct-19 05:55N 30°13' W 093°16'0 0.0
2017-Oct-19 05:25N 30°13' W 093°16'0 0.0
2017-Oct-19 04:55N 30°13' W 093°16'0 0.0
2017-Oct-19 04:25N 30°13' W 093°16'0 0.0
2017-Oct-19 03:55N 30°13' W 093°16'0 0.0
2017-Oct-19 03:28N 30°13' W 093°16'0 0.0
2017-Oct-19 02:55N 30°13' W 093°16'0 0.0
2017-Oct-19 02:25N 30°13' W 093°16'0 0.0
2017-Oct-19 01:55N 30°13' W 093°16'0 0.0
2017-Oct-19 01:19N 30°13' W 093°16'0 0.0
2017-Oct-19 00:49N 30°13' W 093°16'0 0.0
2017-Oct-19 00:28N 30°13' W 093°16'0 0.0
2017-Oct-18 23:49N 30°13' W 093°16'0 0.0
2017-Oct-18 23:25N 30°13' W 093°16'0 0.0
2017-Oct-18 22:55N 30°13' W 093°16'0 0.0
2017-Oct-18 22:25N 30°13' W 093°16'0 0.0
2017-Oct-18 21:58N 30°13' W 093°16'0 0.0
2017-Oct-18 21:28N 30°13' W 093°16'0 0.0
2017-Oct-18 20:43N 30°13' W 093°16'0 0.0
2017-Oct-18 20:25N 30°13' W 093°16'0 0.0
2017-Oct-18 19:55N 30°13' W 093°16'0 0.0
2017-Oct-18 19:25N 30°13' W 093°16'0 0.0
2017-Oct-18 18:58N 30°13' W 093°16'0 0.0
2017-Oct-18 18:25N 30°13' W 093°16'0 0.0
2017-Oct-18 17:49N 30°13' W 093°16'0 0.0
2017-Oct-18 17:25N 30°13' W 093°16'0 0.0
2017-Oct-18 16:55N 30°13' W 093°16'0 0.0
2017-Oct-18 16:25N 30°13' W 093°16'0 0.0
2017-Oct-18 15:49N 30°13' W 093°16'0 0.0
2017-Oct-18 15:19N 30°13' W 093°16'0 0.0
2017-Oct-18 14:55N 30°13' W 093°16'0 0.0
2017-Oct-18 13:49N 30°13' W 093°16'0 0.0
2017-Oct-18 13:19N 30°13' W 093°16'0 0.0
2017-Oct-18 12:49N 30°13' W 093°16'0 0.0
2017-Oct-18 12:25N 30°13' W 093°16'0 0.0
2017-Oct-18 11:55N 30°13' W 093°16'0 0.0
2017-Oct-18 11:25N 30°13' W 093°16'0 0.0
2017-Oct-18 10:55N 30°13' W 093°16'0 0.0
2017-Oct-18 10:19N 30°13' W 093°16'0 0.0
2017-Oct-18 09:43N 30°13' W 093°16'0 0.0
2017-Oct-18 09:25N 30°13' W 093°16'0 0.0
2017-Oct-18 08:49N 30°13' W 093°16'0 0.0
2017-Oct-18 08:25N 30°13' W 093°16'0 0.0
2017-Oct-18 07:55N 30°13' W 093°16'0 0.0
2017-Oct-18 07:19N 30°13' W 093°16'0 0.0
2017-Oct-18 06:49N 30°13' W 093°16'0 0.0
2017-Oct-18 06:25N 30°13' W 093°16'0 0.0
2017-Oct-18 05:43N 30°13' W 093°16'0 0.0
2017-Oct-18 05:25N 30°13' W 093°16'0 0.0
2017-Oct-18 04:55N 30°13' W 093°16'0 0.0
2017-Oct-18 04:25N 30°13' W 093°16'0 0.0
2017-Oct-18 03:55N 30°13' W 093°16'0 0.0
2017-Oct-18 03:25N 30°13' W 093°16'0 0.0
2017-Oct-18 02:55N 30°13' W 093°16'0 0.0
2017-Oct-18 02:25N 30°13' W 093°16'0 0.0
2017-Oct-18 01:55N 30°13' W 093°16'0 0.0
2017-Oct-18 01:25N 30°13' W 093°16'0 0.0
2017-Oct-18 00:55N 30°13' W 093°16'0 0.0
2017-Oct-18 00:25N 30°13' W 093°16'0 0.0
2017-Oct-17 23:49N 30°13' W 093°16'0 0.0
2017-Oct-17 23:25N 30°13' W 093°16'0 0.0
2017-Oct-17 22:55N 30°13' W 093°16'0 0.0
2017-Oct-17 22:25N 30°13' W 093°16'0 0.0
2017-Oct-17 21:55N 30°13' W 093°16'0 0.0
2017-Oct-17 21:25N 30°13' W 093°16'0 0.0
2017-Oct-17 20:55N 30°13' W 093°16'0 0.0
2017-Oct-17 20:25N 30°13' W 093°16'0 0.0
2017-Oct-17 19:55N 30°13' W 093°16'0 0.0
2017-Oct-17 19:25N 30°13' W 093°16'0 0.0
2017-Oct-17 18:55N 30°13' W 093°16'0 0.0
2017-Oct-17 18:25N 30°13' W 093°16'0 0.0
2017-Oct-17 17:55N 30°13' W 093°16'0 0.0
2017-Oct-17 17:25N 30°13' W 093°16'0 0.0
2017-Oct-17 16:55N 30°13' W 093°16'0 0.0
2017-Oct-17 16:25N 30°13' W 093°16'0 0.0
2017-Oct-17 15:19N 30°13' W 093°16'0 0.0
2017-Oct-17 14:55N 30°13' W 093°16'0 0.0
2017-Oct-17 14:25N 30°13' W 093°16'0 0.0
2017-Oct-17 13:55N 30°13' W 093°16'0 0.0
2017-Oct-17 13:19N 30°13' W 093°16'0 0.0
2017-Oct-17 12:55N 30°13' W 093°16'0 0.0
2017-Oct-17 12:25N 30°13' W 093°16'0 0.0
2017-Oct-17 11:55N 30°13' W 093°16'0 0.0
2017-Oct-17 10:07N 30°13' W 093°16'0 0.0
2017-Oct-17 09:55N 30°13' W 093°16'0 0.0
2017-Oct-17 08:37N 30°13' W 093°16'0 0.0
2017-Oct-17 08:25N 30°13' W 093°16'0 0.0
2017-Oct-17 07:55N 30°13' W 093°16'0 0.0
2017-Oct-17 07:25N 30°13' W 093°16'0 0.0
2017-Oct-17 06:55N 30°13' W 093°16'0 0.0
2017-Oct-17 06:25N 30°13' W 093°16'0 0.0
2017-Oct-17 05:55N 30°13' W 093°16'0 0.0
2017-Oct-17 05:07N 30°13' W 093°16'0 0.0
2017-Oct-17 04:55N 30°13' W 093°16'0 0.0
2017-Oct-17 04:25N 30°13' W 093°16'0 0.0
2017-Oct-17 03:55N 30°13' W 093°16'0 0.0
2017-Oct-17 03:13N 30°13' W 093°16'0 0.0
2017-Oct-17 02:43N 30°13' W 093°16'0 0.0
2017-Oct-17 02:01N 30°13' W 093°16'0 0.0
2017-Oct-17 01:37N 30°13' W 093°16'0 0.0
2017-Oct-17 01:25N 30°13' W 093°16'0 0.0
2017-Oct-17 00:55N 30°13' W 093°16'0 0.0
2017-Oct-17 00:13N 30°13' W 093°16'0 0.0
2017-Oct-16 23:55N 30°13' W 093°16'0 0.0
2017-Oct-16 23:25N 30°13' W 093°16'0 0.0
2017-Oct-16 21:55N 30°13' W 093°16'0 0.0
2017-Oct-16 21:19N 30°13' W 093°16'0 0.0
2017-Oct-16 20:55N 30°13' W 093°16'0 0.0
2017-Oct-16 20:13N 30°13' W 093°16'0 0.0
2017-Oct-16 19:49N 30°13' W 093°16'  

Dump ship's entire track history